Time;durP1;ratioP1;P1;durP2;ratioP2;P2;SDS_P1;SDS_P2;PMS_P1;PMS_P2;Temp;Humidity;BMP_temperature;BMP_pressure;BME280_temperature;BME280_humidity;BME280_pressure;Samples;Min_cycle;Max_cycle;Signal;HPM_P1;HPM_P2
2022/12/18 00:00:55;;;;;;;19.92;12.82;;;18.80;51.90;;;;;;5049843;28;20024;-74
2022/12/18 00:03:21;;;;;;;17.92;12.63;;;18.80;51.70;;;;;;5046859;28;20029;-74
2022/12/18 00:05:48;;;;;;;16.90;11.40;;;18.80;51.60;;;;;;5050571;28;20389;-74
2022/12/18 00:08:15;;;;;;;17.90;12.63;;;18.80;51.60;;;;;;5050712;28;20033;-73
2022/12/18 00:10:42;;;;;;;17.00;11.25;;;18.80;51.70;;;;;;5049585;28;20489;-74
2022/12/18 00:13:07;;;;;;;17.20;11.88;;;18.80;51.60;;;;;;5049204;28;20033;-74
2022/12/18 00:15:37;;;;;;;18.52;12.43;;;18.80;51.70;;;;;;5048762;28;20041;-74
2022/12/18 00:18:03;;;;;;;;;;;18.80;51.50;;;;;;5016826;28;20036;-74
2022/12/18 00:20:29;;;;;;;20.17;12.88;;;18.80;51.50;;;;;;5049289;28;19999;-74
2022/12/18 00:22:55;;;;;;;17.27;12.20;;;18.80;51.20;;;;;;5050719;28;20167;-74
2022/12/18 00:25:21;;;;;;;18.10;12.82;;;18.80;51.20;;;;;;5044394;28;20032;-74
2022/12/18 00:27:47;;;;;;;19.02;12.52;;;18.80;51.20;;;;;;5050294;28;20025;-74
2022/12/18 00:30:13;;;;;;;19.48;12.35;;;18.80;51.10;;;;;;5031159;28;20029;-74
2022/12/18 00:32:39;;;;;;;17.35;12.00;;;18.80;51.10;;;;;;5050447;28;20382;-74
2022/12/18 00:35:06;;;;;;;18.48;12.77;;;18.80;51.00;;;;;;5028400;28;20024;-74
2022/12/18 00:37:35;;;;;;;16.95;11.90;;;18.80;51.00;;;;;;5046835;28;20025;-73
2022/12/18 00:40:01;;;;;;;16.65;11.63;;;18.80;50.90;;;;;;5031979;28;20052;-74
2022/12/18 00:45:12;;;;;;;18.05;12.55;;;18.80;51.00;;;;;;5049773;28;20028;-74
2022/12/18 00:47:38;;;;;;;17.60;11.05;;;18.80;50.90;;;;;;5028995;28;20162;-75
2022/12/18 00:50:05;;;;;;;47.13;12.90;;;18.80;51.50;;;;;;5048093;28;20129;-73
2022/12/18 00:52:31;;;;;;;20.17;11.65;;;18.80;52.20;;;;;;5026601;28;20029;-75
2022/12/18 00:54:57;;;;;;;23.05;11.23;;;18.80;51.80;;;;;;5023069;28;20477;-75
2022/12/18 00:57:23;;;;;;;18.05;10.63;;;18.80;51.90;;;;;;5023126;28;20523;-75
2022/12/18 00:59:48;;;;;;;21.05;11.52;;;18.80;52.00;;;;;;5045751;28;20488;-75
2022/12/18 01:02:14;;;;;;;19.38;11.63;;;18.80;51.80;;;;;;5028844;28;20029;-75
2022/12/18 01:04:40;;;;;;;17.95;11.10;;;18.90;51.60;;;;;;5039823;28;20420;-74
2022/12/18 01:07:06;;;;;;;19.13;10.65;;;19.00;51.50;;;;;;5045804;28;20033;-75
2022/12/18 01:09:34;;;;;;;19.23;10.95;;;19.00;51.70;;;;;;5027334;28;20363;-75
2022/12/18 01:12:00;;;;;;;17.92;10.77;;;19.00;52.00;;;;;;5029493;28;20060;-74
2022/12/18 01:14:26;;;;;;;18.88;10.98;;;19.00;51.90;;;;;;5031390;28;20032;-74
2022/12/18 01:16:52;;;;;;;16.95;10.45;;;19.10;52.20;;;;;;5019049;28;20549;-75
2022/12/18 01:19:18;;;;;;;17.10;10.25;;;19.10;52.20;;;;;;5029504;28;20053;-74
2022/12/18 01:21:46;;;;;;;15.50;9.82;;;19.10;52.20;;;;;;5038981;28;20025;-74
2022/12/18 01:24:12;;;;;;;20.50;10.20;;;19.10;52.30;;;;;;5031441;28;20021;-75
2022/12/18 01:26:38;;;;;;;17.30;10.45;;;19.10;52.30;;;;;;4999115;28;20059;-75
2022/12/18 01:29:04;;;;;;;15.02;9.93;;;19.10;53.10;;;;;;5048625;28;20025;-74
2022/12/18 01:31:33;;;;;;;16.02;9.95;;;19.10;52.50;;;;;;5049707;28;20025;-74
2022/12/18 01:34:03;;;;;;;17.08;10.45;;;19.10;52.60;;;;;;5048456;28;20059;-76
2022/12/18 01:36:31;;;;;;;14.82;9.75;;;19.10;52.80;;;;;;5031714;28;20029;-75
2022/12/18 01:39:00;;;;;;;19.00;11.45;;;19.20;52.80;;;;;;5030390;28;20028;-75
2022/12/18 01:42:01;;;;;;;;;;;19.10;52.60;;;;;;5042316;28;20082;-74
2022/12/18 01:44:50;;;;;;;16.10;10.45;;;19.10;52.80;;;;;;5048843;28;19931;-74
2022/12/18 01:47:24;;;;;;;26.13;10.82;;;19.10;52.80;;;;;;5060682;28;20133;-74
2022/12/18 01:49:51;;;;;;;17.83;9.55;;;19.10;52.80;;;;;;5033409;28;20255;-75
2022/12/18 01:52:20;;;;;;;15.07;9.95;;;19.10;52.80;;;;;;5034124;28;20029;-76
2022/12/18 01:54:47;;;;;;;17.67;10.57;;;19.10;52.90;;;;;;5029695;28;20556;-77
2022/12/18 01:57:13;;;;;;;16.17;10.32;;;19.10;53.40;;;;;;5046551;28;20025;-76
2022/12/18 01:59:40;;;;;;;14.35;9.52;;;19.10;52.90;;;;;;5025635;28;20072;-75
2022/12/18 02:02:07;;;;;;;19.10;9.70;;;19.10;52.80;;;;;;5050009;28;20024;-77
2022/12/18 02:04:33;;;;;;;18.83;10.35;;;19.10;53.10;;;;;;5024748;28;20044;-77
2022/12/18 02:07:12;;;;;;;18.55;10.43;;;19.20;52.90;;;;;;5039806;28;20025;-76
2022/12/18 02:09:50;;;;;;;16.98;9.70;;;19.10;53.00;;;;;;5029700;28;20017;-76
2022/12/18 02:12:25;;;;;;;16.50;10.30;;;19.10;52.80;;;;;;5031452;28;20036;-77
2022/12/18 02:15:02;;;;;;;16.65;10.40;;;19.10;53.00;;;;;;5026067;28;20041;-75
2022/12/18 02:17:58;;;;;;;15.40;10.15;;;19.10;53.00;;;;;;5025375;28;20033;-76
2022/12/18 02:20:30;;;;;;;17.00;10.57;;;19.10;52.80;;;;;;5029828;28;20389;-76
2022/12/18 02:23:39;;;;;;;18.15;11.13;;;19.10;53.00;;;;;;5030040;28;20033;-75
2022/12/18 02:26:37;;;;;;;19.38;10.88;;;19.00;52.40;;;;;;5013433;28;20100;-75
2022/12/18 02:29:11;;;;;;;18.42;10.23;;;19.00;52.50;;;;;;5043822;28;20485;-76
2022/12/18 02:31:46;;;;;;;17.63;10.35;;;19.00;52.60;;;;;;5008435;28;20388;-76
2022/12/18 02:34:14;;;;;;;18.52;9.95;;;19.00;52.60;;;;;;5028555;28;20029;-77
2022/12/18 02:36:44;;;;;;;32.50;10.93;;;19.00;52.60;;;;;;5024926;28;20431;-76
2022/12/18 02:39:13;;;;;;;20.90;10.20;;;19.00;52.50;;;;;;5043705;28;20033;-75
2022/12/18 02:41:47;;;;;;;19.42;10.90;;;19.00;52.60;;;;;;5021158;28;20037;-75
2022/12/18 02:44:13;;;;;;;19.88;10.57;;;19.00;53.00;;;;;;5046592;28;20024;-76
2022/12/18 02:46:48;;;;;;;16.88;9.95;;;19.00;52.80;;;;;;5026181;28;20099;-75
2022/12/18 02:49:39;;;;;;;19.13;10.15;;;19.00;52.80;;;;;;5023574;28;20029;-74
2022/12/18 02:52:25;;;;;;;21.08;11.20;;;19.00;53.00;;;;;;5016038;28;20029;-75
2022/12/18 02:55:04;;;;;;;25.02;11.32;;;18.90;52.50;;;;;;5031775;28;20049;-75
2022/12/18 02:57:31;;;;;;;17.52;10.25;;;18.90;52.40;;;;;;5033836;28;20397;-76
2022/12/18 03:00:30;;;;;;;19.83;10.75;;;18.90;52.10;;;;;;5014796;28;20028;-76
2022/12/18 03:02:59;;;;;;;19.95;10.52;;;18.90;52.30;;;;;;5008397;28;20037;-75
2022/12/18 03:05:33;;;;;;;18.10;10.10;;;18.90;52.20;;;;;;5028382;28;20033;-76
2022/12/18 03:08:03;;;;;;;29.27;10.52;;;18.90;52.30;;;;;;5032435;28;20580;-76
2022/12/18 03:10:44;;;;;;;16.45;10.02;;;18.90;52.20;;;;;;5033310;28;20029;-76
2022/12/18 03:13:20;;;;;;;22.35;10.68;;;18.90;52.20;;;;;;5031676;28;20113;-75
2022/12/18 03:15:49;;;;;;;18.70;9.80;;;18.90;52.10;;;;;;5030458;28;20029;-76
2022/12/18 03:18:18;;;;;;;;;;;18.90;52.40;;;;;;5032990;28;20029;-76
2022/12/18 03:20:46;;;;;;;16.23;9.90;;;18.90;52.00;;;;;;5056175;28;19979;-76
2022/12/18 03:23:20;;;;;;;19.33;9.70;;;18.90;52.00;;;;;;5032028;28;20047;-76
2022/12/18 03:25:51;;;;;;;16.67;9.52;;;18.90;52.00;;;;;;5051136;28;20465;-76
2022/12/18 03:28:21;;;;;;;17.30;9.88;;;18.90;52.20;;;;;;4996294;28;20048;-76
2022/12/18 03:30:56;;;;;;;17.52;9.82;;;18.90;52.20;;;;;;5033828;28;20059;-77
2022/12/18 03:33:43;;;;;;;17.55;9.57;;;18.90;52.00;;;;;;5050340;28;20025;-77
2022/12/18 03:36:09;;;;;;;18.00;9.75;;;18.90;52.10;;;;;;5050649;28;20029;-76
2022/12/18 03:38:35;;;;;;;18.52;10.00;;;18.90;51.90;;;;;;5050164;28;20443;-76
2022/12/18 03:41:07;;;;;;;20.67;10.13;;;18.90;52.20;;;;;;5051920;28;20032;-77
2022/12/18 03:44:03;;;;;;;17.95;10.23;;;18.90;52.10;;;;;;5010473;28;20477;-77
2022/12/18 03:46:41;;;;;;;20.65;10.55;;;18.90;51.80;;;;;;5034281;28;20029;-76
2022/12/18 03:49:18;;;;;;;26.83;10.35;;;18.90;51.80;;;;;;5019797;28;20086;-76
2022/12/18 03:51:47;;;;;;;21.60;9.82;;;18.90;52.20;;;;;;5028813;28;20543;-76
2022/12/18 03:54:14;;;;;;;18.23;9.73;;;18.90;52.10;;;;;;5015815;28;20025;-76
2022/12/18 03:56:54;;;;;;;17.50;9.35;;;18.90;52.00;;;;;;5038258;28;20040;-76
2022/12/18 03:59:22;;;;;;;17.13;9.90;;;18.90;51.80;;;;;;5024592;28;20029;-75
2022/12/18 04:01:52;;;;;;;16.70;9.65;;;18.90;51.90;;;;;;5032118;28;20469;-76
2022/12/18 04:04:19;;;;;;;16.58;9.90;;;18.90;52.00;;;;;;5025101;28;20025;-76
2022/12/18 04:06:48;;;;;;;17.50;10.48;;;18.90;51.90;;;;;;5004891;28;20029;-76
2022/12/18 04:09:14;;;;;;;17.67;10.20;;;18.80;51.80;;;;;;5007460;28;20163;-76
2022/12/18 04:11:44;;;;;;;20.17;9.95;;;18.80;51.90;;;;;;5032656;28;20029;-76
2022/12/18 04:14:10;;;;;;;15.75;9.65;;;18.80;51.90;;;;;;5032988;28;20552;-76
2022/12/18 04:16:39;;;;;;;19.33;9.90;;;18.90;51.90;;;;;;5031755;28;20122;-76
2022/12/18 04:19:08;;;;;;;20.48;10.13;;;18.80;52.20;;;;;;5031471;28;20025;-75
2022/12/18 04:21:38;;;;;;;15.68;9.43;;;18.80;52.30;;;;;;5032474;28;20540;-75
2022/12/18 04:24:05;;;;;;;16.83;9.68;;;18.80;52.00;;;;;;5032114;28;20358;-76
2022/12/18 04:26:35;;;;;;;;;;;18.80;52.10;;;;;;5031897;28;20033;-76
2022/12/18 04:29:27;;;;;;;18.02;10.18;;;18.80;51.80;;;;;;5043867;28;19919;-76
2022/12/18 04:31:52;;;;;;;17.20;9.32;;;18.80;51.90;;;;;;5022135;28;20025;-75
2022/12/18 04:34:19;;;;;;;18.30;9.88;;;18.80;52.40;;;;;;5019478;28;20021;-76
2022/12/18 04:36:49;;;;;;;18.05;10.38;;;18.80;52.20;;;;;;5037938;28;20489;-76
2022/12/18 04:39:16;;;;;;;16.67;9.60;;;18.80;52.20;;;;;;5031633;28;20028;-76
2022/12/18 04:41:43;;;;;;;16.23;9.88;;;18.80;52.30;;;;;;5015950;28;20025;-76
2022/12/18 04:44:10;;;;;;;17.77;10.20;;;18.80;52.30;;;;;;5030545;28;20024;-76
2022/12/18 04:46:36;;;;;;;19.20;10.02;;;18.80;51.70;;;;;;5049729;28;20029;-76
2022/12/18 04:49:02;;;;;;;17.40;10.10;;;18.80;52.20;;;;;;5048911;28;20047;-75
2022/12/18 04:51:27;;;;;;;16.58;10.02;;;18.80;51.80;;;;;;5048793;28;20449;-76
2022/12/18 04:53:53;;;;;;;18.42;11.02;;;18.80;52.50;;;;;;5028174;28;20025;-75
2022/12/18 04:56:19;;;;;;;19.70;11.00;;;18.80;51.60;;;;;;5049869;28;20099;-76
2022/12/18 04:58:45;;;;;;;15.88;9.75;;;18.80;51.70;;;;;;5048379;28;20116;-75
2022/12/18 05:01:13;;;;;;;20.55;10.52;;;18.80;51.20;;;;;;5049106;28;20037;-75
2022/12/18 05:03:39;;;;;;;19.88;11.40;;;18.80;51.10;;;;;;5049229;28;20059;-75
2022/12/18 05:06:06;;;;;;;18.73;10.38;;;18.80;51.30;;;;;;5015448;28;20040;-75
2022/12/18 05:08:33;;;;;;;15.55;10.13;;;18.80;51.20;;;;;;5027619;28;20057;-76
2022/12/18 05:11:04;;;;;;;20.17;10.85;;;18.80;51.30;;;;;;5029777;28;20052;-76
2022/12/18 05:13:30;;;;;;;18.73;10.60;;;18.80;51.10;;;;;;5049342;28;20377;-76
2022/12/18 05:15:56;;;;;;;16.73;10.52;;;18.80;51.10;;;;;;5048476;28;20083;-76
2022/12/18 05:18:25;;;;;;;16.60;10.02;;;18.80;51.30;;;;;;5032097;28;20029;-76
2022/12/18 05:20:53;;;;;;;18.30;11.18;;;18.70;51.30;;;;;;5031321;28;20028;-75
2022/12/18 05:23:22;;;;;;;16.73;10.38;;;18.70;51.30;;;;;;5048681;28;20120;-75
2022/12/18 05:25:59;;;;;;;16.33;10.45;;;18.70;52.00;;;;;;5049369;28;20108;-77
2022/12/18 05:28:27;;;;;;;17.00;10.55;;;18.70;51.30;;;;;;5040705;28;20029;-76
2022/12/18 05:30:54;;;;;;;16.27;9.95;;;18.80;51.50;;;;;;5030472;28;20040;-76
2022/12/18 05:33:22;;;;;;;16.42;9.93;;;18.70;52.40;;;;;;5013785;28;20505;-76
2022/12/18 05:35:52;;;;;;;16.00;9.80;;;18.70;51.70;;;;;;5034151;28;20024;-76
2022/12/18 05:38:19;;;;;;;17.00;10.15;;;18.70;51.50;;;;;;5028572;28;20084;-76
2022/12/18 05:40:45;;;;;;;16.55;10.52;;;18.70;51.80;;;;;;5048615;28;20086;-76
2022/12/18 05:43:11;;;;;;;16.65;9.88;;;18.70;51.70;;;;;;5031468;28;20079;-76
2022/12/18 05:45:38;;;;;;;16.75;10.27;;;18.70;52.20;;;;;;5048628;28;20480;-76
2022/12/18 05:48:05;;;;;;;16.65;9.95;;;18.70;51.20;;;;;;5045410;28;20025;-76
2022/12/18 05:50:33;;;;;;;16.23;10.45;;;18.70;51.80;;;;;;5047763;28;20493;-77
2022/12/18 05:53:01;;;;;;;16.45;9.93;;;18.70;51.60;;;;;;5048904;28;20384;-76
2022/12/18 05:55:38;;;;;;;18.02;9.82;;;18.70;51.70;;;;;;5030987;28;20036;-76
2022/12/18 05:58:05;;;;;;;18.45;10.43;;;18.70;51.80;;;;;;5030521;28;20021;-76
2022/12/18 06:00:32;;;;;;;15.70;9.57;;;18.70;51.80;;;;;;5043548;28;20100;-76
2022/12/18 06:03:01;;;;;;;15.60;9.60;;;18.70;51.80;;;;;;5048771;28;20047;-76
2022/12/18 06:05:27;;;;;;;18.58;10.40;;;18.70;51.90;;;;;;5046820;28;20029;-75
2022/12/18 06:07:53;;;;;;;17.92;9.60;;;18.70;52.60;;;;;;5048906;28;20032;-76
2022/12/18 06:10:19;;;;;;;18.33;9.45;;;18.70;52.00;;;;;;5046495;28;20036;-77
2022/12/18 06:12:45;;;;;;;19.35;10.50;;;18.70;53.40;;;;;;5049048;28;20108;-76
2022/12/18 06:15:11;;;;;;;22.35;11.38;;;18.70;53.20;;;;;;5031055;28;20033;-76
2022/12/18 06:17:37;;;;;;;17.92;10.35;;;18.70;53.10;;;;;;5048513;28;20422;-76
2022/12/18 06:20:04;;;;;;;16.83;10.38;;;18.70;53.00;;;;;;5047155;28;20081;-77
2022/12/18 06:22:32;;;;;;;20.42;9.73;;;18.70;53.60;;;;;;5048091;28;20025;-74
2022/12/18 06:24:59;;;;;;;15.52;9.80;;;18.70;53.60;;;;;;5030018;28;20074;-75
2022/12/18 06:27:25;;;;;;;14.68;9.77;;;18.70;54.10;;;;;;5052157;28;20059;-75
2022/12/18 06:29:50;;;;;;;17.17;10.43;;;18.70;54.20;;;;;;5051205;28;20552;-75
2022/12/18 06:32:16;;;;;;;14.57;9.52;;;18.60;53.80;;;;;;5048593;28;20033;-75
2022/12/18 06:34:42;;;;;;;17.45;10.63;;;18.60;54.30;;;;;;5051903;28;20112;-75
2022/12/18 06:37:08;;;;;;;16.75;10.50;;;18.60;53.90;;;;;;5051049;28;20036;-75
2022/12/18 06:39:33;;;;;;;17.67;9.55;;;18.60;53.80;;;;;;5050877;28;20025;-75
2022/12/18 06:41:59;;;;;;;17.77;10.13;;;18.60;53.90;;;;;;5034081;28;20036;-74
2022/12/18 06:44:25;;;;;;;28.67;12.38;;;18.60;54.00;;;;;;5067095;22;20045;-72
2022/12/18 06:46:50;;;;;;;34.10;16.92;;;18.60;52.30;;;;;;5053498;28;20040;-73
2022/12/18 06:49:16;;;;;;;32.33;18.80;;;18.60;51.70;;;;;;5043723;28;20025;-72
2022/12/18 06:51:42;;;;;;;29.63;15.18;;;18.50;48.80;;;;;;5051643;28;20021;-72
2022/12/18 06:54:08;;;;;;;23.63;14.52;;;18.50;50.20;;;;;;5053615;28;20075;-72
2022/12/18 06:56:34;;;;;;;21.70;14.05;;;18.50;51.00;;;;;;5051475;28;20040;-72
2022/12/18 06:59:00;;;;;;;21.38;14.27;;;18.50;51.00;;;;;;5052704;28;20055;-72
2022/12/18 07:01:26;;;;;;;21.40;14.20;;;18.50;51.10;;;;;;5052377;28;20029;-72
2022/12/18 07:03:54;;;;;;;21.13;13.70;;;18.50;51.60;;;;;;5051653;28;20028;-72
2022/12/18 07:06:22;;;;;;;22.17;13.77;;;18.50;51.10;;;;;;5068077;28;20533;-72
2022/12/18 07:08:49;;;;;;;20.80;13.63;;;18.50;51.00;;;;;;5053940;28;20021;-73
2022/12/18 07:11:16;;;;;;;20.73;13.48;;;18.50;51.00;;;;;;5052287;28;20304;-72
2022/12/18 07:13:41;;;;;;;23.60;14.18;;;18.50;51.00;;;;;;5052715;28;20098;-73
2022/12/18 07:16:09;;;;;;;19.67;13.50;;;18.40;50.90;;;;;;5041633;28;20476;-72
2022/12/18 07:18:36;;;;;;;28.95;13.45;;;18.50;51.20;;;;;;5051556;28;20032;-72
2022/12/18 07:21:06;;;;;;;22.15;13.80;;;18.50;51.30;;;;;;5038672;28;20029;-72
2022/12/18 07:23:34;;;;;;;20.75;12.57;;;18.50;51.10;;;;;;5052881;28;20017;-73
2022/12/18 07:26:09;;;;;;;20.65;12.82;;;18.40;51.20;;;;;;5052700;28;20468;-72
2022/12/18 07:28:36;;;;;;;18.52;12.52;;;18.50;51.30;;;;;;5050324;28;20101;-72
2022/12/18 07:31:10;;;;;;;18.88;12.38;;;18.40;51.30;;;;;;5050700;28;20465;-73
2022/12/18 07:33:35;;;;;;;17.80;11.95;;;18.50;51.20;;;;;;5051043;28;20370;-72
2022/12/18 07:36:06;;;;;;;19.42;12.48;;;18.40;51.10;;;;;;5051613;28;20444;-73
2022/12/18 07:38:32;;;;;;;18.50;12.40;;;18.50;51.10;;;;;;5052299;28;20386;-72
2022/12/18 07:41:02;;;;;;;19.75;12.40;;;18.50;51.30;;;;;;5049475;28;20047;-72
2022/12/18 07:43:28;;;;;;;20.88;13.02;;;18.50;51.10;;;;;;5033218;28;20037;-72
2022/12/18 07:45:54;;;;;;;18.58;11.52;;;18.50;51.40;;;;;;5051309;28;20081;-72
2022/12/18 07:48:20;;;;;;;16.63;11.60;;;18.50;51.30;;;;;;5052421;28;20473;-73
2022/12/18 07:50:46;;;;;;;17.52;11.13;;;18.40;51.30;;;;;;5051530;28;20397;-72
2022/12/18 07:53:12;;;;;;;18.05;11.32;;;18.40;51.60;;;;;;5051441;28;20040;-72
2022/12/18 07:55:37;;;;;;;18.98;11.80;;;18.40;51.70;;;;;;5050663;28;20029;-73
2022/12/18 07:58:04;;;;;;;16.33;11.18;;;18.40;51.80;;;;;;5051813;28;20158;-73
2022/12/18 08:00:30;;;;;;;17.80;11.73;;;18.40;52.00;;;;;;5051103;28;20083;-73
2022/12/18 08:02:56;;;;;;;16.17;11.35;;;18.40;51.80;;;;;;5049906;28;20029;-72
2022/12/18 08:05:23;;;;;;;23.90;11.85;;;18.40;51.70;;;;;;5052584;28;20025;-73
2022/12/18 08:07:49;;;;;;;20.90;12.02;;;18.40;52.00;;;;;;5051107;28;20070;-73
2022/12/18 08:10:15;;;;;;;18.42;11.32;;;18.40;51.90;;;;;;5050318;28;20041;-72
2022/12/18 08:12:40;;;;;;;17.23;11.30;;;18.40;51.80;;;;;;5045861;28;20052;-73
2022/12/18 08:15:06;;;;;;;17.17;10.88;;;18.40;51.90;;;;;;5050143;28;20032;-72
2022/12/18 08:17:32;;;;;;;18.90;10.85;;;18.40;52.20;;;;;;5050982;28;20028;-73
2022/12/18 08:19:58;;;;;;;17.33;10.63;;;18.40;51.90;;;;;;5050740;28;20084;-73
2022/12/18 08:22:24;;;;;;;18.83;11.35;;;18.30;52.00;;;;;;5050829;28;20033;-73
2022/12/18 08:24:50;;;;;;;21.42;11.35;;;18.40;52.20;;;;;;5051910;28;20056;-73
2022/12/18 08:27:16;;;;;;;19.38;11.30;;;18.40;52.30;;;;;;5051146;28;20068;-72
2022/12/18 08:29:41;;;;;;;18.42;11.32;;;18.30;52.50;;;;;;5052234;28;20612;-72
2022/12/18 08:32:07;;;;;;;18.77;11.15;;;18.40;52.70;;;;;;5051738;28;20086;-72
2022/12/18 08:34:34;;;;;;;19.17;11.05;;;18.40;52.70;;;;;;5030882;28;20448;-72
2022/12/18 08:36:59;;;;;;;17.08;10.43;;;18.40;52.30;;;;;;5050924;28;20032;-71
2022/12/18 08:39:25;;;;;;;15.73;10.65;;;18.40;52.80;;;;;;5052131;28;20033;-72
2022/12/18 08:44:38;;;;;;;17.40;10.80;;;18.40;51.90;;;;;;5051669;28;20033;-72
2022/12/18 08:47:05;;;;;;;16.77;10.68;;;18.40;52.60;;;;;;5048792;28;20025;-72
2022/12/18 08:49:32;;;;;;;16.23;10.25;;;18.40;52.40;;;;;;5048555;28;20409;-72
2022/12/18 08:51:58;;;;;;;17.60;10.52;;;18.40;52.60;;;;;;5051251;28;20024;-72
2022/12/18 08:54:24;;;;;;;18.95;10.32;;;18.40;52.70;;;;;;5050072;28;20112;-72
2022/12/18 08:56:50;;;;;;;18.15;11.25;;;18.40;52.60;;;;;;5049887;28;20031;-72
2022/12/18 08:59:17;;;;;;;18.27;10.80;;;18.50;52.60;;;;;;5051129;28;20104;-73
2022/12/18 09:01:43;;;;;;;15.80;10.20;;;18.50;53.00;;;;;;5045776;28;20062;-71
2022/12/18 09:04:12;;;;;;;17.23;10.65;;;18.50;53.00;;;;;;5049412;28;20029;-71
2022/12/18 09:06:38;;;;;;;16.42;9.77;;;18.50;52.50;;;;;;5050056;28;20036;-72
2022/12/18 09:09:05;;;;;;;18.20;11.27;;;18.50;52.10;;;;;;5047995;28;20033;-71
2022/12/18 09:11:33;;;;;;;20.25;10.88;;;18.50;51.60;;;;;;5051840;28;20437;-72
2022/12/18 09:14:00;;;;;;;18.25;10.68;;;18.50;51.50;;;;;;5050775;28;20033;-71
2022/12/18 09:16:28;;;;;;;16.55;10.50;;;18.60;51.50;;;;;;5046243;28;20029;-72
2022/12/18 09:19:01;;;;;;;17.45;10.77;;;18.60;51.20;;;;;;5049121;28;20025;-72
2022/12/18 09:21:31;;;;;;;16.10;10.25;;;18.60;51.30;;;;;;5051449;28;20025;-72
2022/12/18 09:23:57;;;;;;;16.80;11.02;;;18.60;51.10;;;;;;5048111;28;20545;-72
2022/12/18 09:26:23;;;;;;;16.35;10.32;;;18.60;51.80;;;;;;5043013;28;20108;-72
2022/12/18 09:28:50;;;;;;;17.42;9.88;;;18.60;51.00;;;;;;5050809;28;20080;-72
2022/12/18 09:31:18;;;;;;;16.48;10.52;;;18.60;51.20;;;;;;5041055;28;20017;-72
2022/12/18 09:33:45;;;;;;;15.93;9.90;;;18.60;51.60;;;;;;5045859;28;20029;-72
2022/12/18 09:36:13;;;;;;;16.67;10.30;;;18.60;51.30;;;;;;5050304;28;20056;-72
2022/12/18 09:38:39;;;;;;;17.60;10.32;;;18.60;51.60;;;;;;5051187;28;20103;-72
2022/12/18 09:41:50;;;;;;;17.40;10.15;;;18.60;51.60;;;;;;5047619;28;20029;-73
2022/12/18 09:44:30;;;;;;;15.45;10.27;;;18.60;51.50;;;;;;5006370;28;20481;-73
2022/12/18 09:47:05;;;;;;;17.27;9.57;;;18.70;52.70;;;;;;5049115;28;20511;-73
2022/12/18 09:49:37;;;;;;;18.35;9.38;;;18.70;52.90;;;;;;5048954;28;20146;-72
2022/12/18 09:52:11;;;;;;;19.52;9.25;;;18.70;52.30;;;;;;5049494;28;20489;-72
2022/12/18 09:54:41;;;;;;;27.77;9.50;;;18.70;53.30;;;;;;5049513;28;20500;-72
2022/12/18 09:57:15;;;;;;;33.40;10.50;;;18.70;53.30;;;;;;5046549;28;20516;-72
2022/12/18 09:59:43;;;;;;;69.28;13.55;;;18.70;53.30;;;;;;5032153;28;20028;-72
2022/12/18 10:02:24;;;;;;;47.20;12.63;;;18.80;54.40;;;;;;5049754;28;20070;-74
2022/12/18 10:05:12;;;;;;;40.97;12.35;;;18.80;55.20;;;;;;5049259;28;20512;-72
2022/12/18 10:08:21;;;;;;;41.55;15.00;;;18.80;57.00;;;;;;5046619;28;20036;-74
2022/12/18 10:10:54;;;;;;;34.07;21.33;;;18.50;44.00;;;;;;4979557;28;20564;-73
2022/12/18 10:13:47;;;;;;;33.03;19.67;;;17.20;37.40;;;;;;5036319;28;20037;-72
2022/12/18 10:16:19;;;;;;;39.58;18.77;;;17.40;42.80;;;;;;5049820;28;20036;-72
2022/12/18 10:19:03;;;;;;;42.50;17.95;;;17.60;44.80;;;;;;5049032;28;20032;-72
2022/12/18 10:21:41;;;;;;;31.67;16.95;;;17.80;45.20;;;;;;5052586;28;20095;-73
2022/12/18 10:24:32;;;;;;;35.00;16.90;;;18.00;46.50;;;;;;5048895;28;20444;-73
2022/12/18 10:27:15;;;;;;;29.27;15.70;;;18.20;46.70;;;;;;5049700;28;20029;-72
2022/12/18 10:29:45;;;;;;;34.50;15.13;;;18.30;47.10;;;;;;5044517;28;20488;-72
2022/12/18 10:32:15;;;;;;;;;;;18.40;47.00;;;;;;5049580;28;20509;-72
2022/12/18 10:34:44;;;;;;;35.88;14.95;;;18.40;47.80;;;;;;5048840;28;20182;-72
2022/12/18 10:37:19;;;;;;;24.65;14.98;;;18.50;48.10;;;;;;5049488;28;20037;-72
2022/12/18 10:39:46;;;;;;;35.17;14.45;;;18.50;48.20;;;;;;5048265;28;20111;-73
2022/12/18 10:42:21;;;;;;;33.90;15.80;;;18.50;47.60;;;;;;5048556;28;20025;-72
2022/12/18 10:45:03;;;;;;;29.00;14.90;;;18.60;48.30;;;;;;5047993;28;20028;-72
2022/12/18 10:47:29;;;;;;;32.40;17.33;;;18.60;48.50;;;;;;5046795;28;20085;-73
2022/12/18 10:49:55;;;;;;;34.90;16.77;;;18.60;47.30;;;;;;5046705;28;20028;-73
2022/12/18 10:52:24;;;;;;;33.63;17.85;;;18.50;48.30;;;;;;5050756;28;20033;-72
2022/12/18 10:55:02;;;;;;;24.85;16.35;;;18.60;47.80;;;;;;5047240;28;20108;-72
2022/12/18 10:57:40;;;;;;;27.90;17.25;;;18.50;47.60;;;;;;5048261;28;20032;-72
2022/12/18 11:00:21;;;;;;;27.45;18.58;;;18.50;45.90;;;;;;5049264;28;20029;-72
2022/12/18 11:02:47;;;;;;;29.83;18.38;;;18.40;43.10;;;;;;5048254;28;20393;-72
2022/12/18 11:05:31;;;;;;;32.28;18.27;;;18.20;44.00;;;;;;5048891;28;20017;-71
2022/12/18 11:07:59;;;;;;;29.40;16.42;;;18.20;43.50;;;;;;5049541;28;20032;-72
2022/12/18 11:10:35;;;;;;;27.05;16.33;;;18.30;44.20;;;;;;5050198;28;20033;-72
2022/12/18 11:13:21;;;;;;;25.83;15.98;;;18.40;44.80;;;;;;5049536;28;20112;-71
2022/12/18 11:15:48;;;;;;;35.90;15.88;;;18.50;45.50;;;;;;5039899;28;20129;-71
2022/12/18 11:18:22;;;;;;;28.75;15.25;;;18.50;45.40;;;;;;5050910;28;20047;-71
2022/12/18 11:20:57;;;;;;;22.48;14.13;;;18.50;44.80;;;;;;5053851;28;20031;-73
2022/12/18 11:23:24;;;;;;;25.63;14.93;;;18.50;45.60;;;;;;5050184;28;20083;-72
2022/12/18 11:25:56;;;;;;;27.38;14.80;;;18.50;46.00;;;;;;5053555;28;20061;-70
2022/12/18 11:28:52;;;;;;;26.05;15.10;;;18.50;46.00;;;;;;5041921;28;20115;-72
2022/12/18 11:31:27;;;;;;;35.97;15.13;;;18.60;45.20;;;;;;5036060;28;20492;-72
2022/12/18 11:34:00;;;;;;;28.08;12.50;;;18.60;46.20;;;;;;5052888;28;20055;-76
2022/12/18 11:36:30;;;;;;;28.90;13.25;;;18.70;46.80;;;;;;5049383;28;20032;-76
2022/12/18 11:39:03;;;;;;;31.75;13.00;;;18.70;47.30;;;;;;5050938;28;20036;-78
2022/12/18 11:44:40;;;;;;;26.10;12.98;;;18.70;46.50;;;;;;5033578;28;20124;-77
2022/12/18 11:47:15;;;;;;;27.38;14.13;;;18.70;46.10;;;;;;5043862;28;20094;-77
2022/12/18 11:49:41;;;;;;;23.75;12.55;;;18.70;46.00;;;;;;5053228;28;20480;-76
2022/12/18 11:52:21;;;;;;;23.30;12.95;;;18.70;46.20;;;;;;5051321;28;20021;-76
2022/12/18 11:54:55;;;;;;;23.02;12.30;;;18.60;46.50;;;;;;5053420;28;20044;-77
2022/12/18 11:57:56;;;;;;;24.17;12.63;;;18.70;46.50;;;;;;5033729;28;20025;-76
2022/12/18 12:00:22;;;;;;;20.48;12.25;;;18.70;46.60;;;;;;5028300;28;20064;-76
2022/12/18 12:03:09;;;;;;;21.58;11.73;;;18.60;46.60;;;;;;5044884;28;20392;-76
2022/12/18 12:05:59;;;;;;;19.27;11.77;;;18.60;46.70;;;;;;5048660;28;20033;-77
2022/12/18 12:08:52;;;;;;;18.73;11.95;;;18.60;47.10;;;;;;5051675;28;20037;-77
2022/12/18 12:11:37;;;;;;;18.85;11.50;;;18.60;47.20;;;;;;5044038;28;20033;-76
2022/12/18 12:14:14;;;;;;;19.00;11.63;;;18.60;47.10;;;;;;5051384;28;20024;-76
2022/12/18 12:16:52;;;;;;;20.02;11.82;;;18.60;47.20;;;;;;5052153;28;20029;-76
2022/12/18 12:19:55;;;;;;;18.08;11.52;;;18.60;47.40;;;;;;5045056;28;20033;-76
2022/12/18 12:22:36;;;;;;;19.80;11.55;;;18.60;47.40;;;;;;5051955;28;20037;-77
2022/12/18 12:25:21;;;;;;;20.10;11.65;;;18.60;47.60;;;;;;5049992;28;20036;-77
2022/12/18 12:28:11;;;;;;;20.23;10.77;;;18.60;48.00;;;;;;5051803;28;20029;-76
2022/12/18 12:30:39;;;;;;;;;;;18.60;47.60;;;;;;5052014;28;20082;-76
2022/12/18 12:33:31;;;;;;;17.40;9.90;;;18.60;47.70;;;;;;5052955;28;19963;-76
2022/12/18 12:36:15;;;;;;;19.30;10.43;;;18.60;47.70;;;;;;5053003;28;20565;-77
2022/12/18 12:38:46;;;;;;;19.17;11.18;;;18.50;47.70;;;;;;5051162;28;20477;-77
2022/12/18 12:44:08;;;;;;;20.77;10.88;;;18.60;48.00;;;;;;5054017;22;20080;-71
2022/12/18 12:46:39;;;;;;;16.48;10.18;;;18.60;48.20;;;;;;5028631;28;20026;-73
2022/12/18 12:49:13;;;;;;;19.60;10.07;;;18.60;48.00;;;;;;5030065;28;20025;-71
2022/12/18 12:51:50;;;;;;;17.48;10.30;;;18.60;48.10;;;;;;5032357;28;20038;-71
2022/12/18 12:54:20;;;;;;;19.73;11.35;;;18.60;48.70;;;;;;5031994;28;20100;-70
2022/12/18 12:57:11;;;;;;;17.50;10.20;;;18.60;48.40;;;;;;5031277;28;20040;-70
2022/12/18 12:59:56;;;;;;;16.48;9.70;;;18.60;48.30;;;;;;5030379;28;20413;-71
2022/12/18 13:02:37;;;;;;;17.17;9.73;;;18.60;48.70;;;;;;5031145;28;20516;-70